sensor_id;sensor_type;location;lat;lon;timestamp;pressure;altitude;pressure_sealevel;temperature;humidity
59939;BME280;45801;51.810;19.444;2023-04-10T00:00:27;99923.24;;;10.39;74.42
59939;BME280;45801;51.810;19.444;2023-04-10T00:03:14;99922.88;;;10.39;74.29
59939;BME280;45801;51.810;19.444;2023-04-10T00:05:42;99920.00;;;10.38;74.85
59939;BME280;45801;51.810;19.444;2023-04-10T00:08:09;99919.81;;;10.37;74.51
59939;BME280;45801;51.810;19.444;2023-04-10T00:10:36;99920.48;;;10.36;74.07
59939;BME280;45801;51.810;19.444;2023-04-10T00:13:03;99921.50;;;10.36;74.30
59939;BME280;45801;51.810;19.444;2023-04-10T00:15:30;99920.33;;;10.34;74.18
59939;BME280;45801;51.810;19.444;2023-04-10T00:17:56;99916.20;;;10.33;74.11
59939;BME280;45801;51.810;19.444;2023-04-10T00:20:23;99918.55;;;10.31;73.93
59939;BME280;45801;51.810;19.444;2023-04-10T00:22:51;99917.45;;;10.27;73.81
59939;BME280;45801;51.810;19.444;2023-04-10T00:25:18;99911.89;;;10.24;73.99
59939;BME280;45801;51.810;19.444;2023-04-10T00:27:44;99911.98;;;10.23;74.20
59939;BME280;45801;51.810;19.444;2023-04-10T00:30:11;99910.77;;;10.20;74.40
59939;BME280;45801;51.810;19.444;2023-04-10T00:32:37;99911.39;;;10.18;74.23
59939;BME280;45801;51.810;19.444;2023-04-10T00:35:04;99915.39;;;10.18;74.09
59939;BME280;45801;51.810;19.444;2023-04-10T00:37:31;99913.04;;;10.17;73.98
59939;BME280;45801;51.810;19.444;2023-04-10T00:39:57;99913.48;;;10.16;74.17
59939;BME280;45801;51.810;19.444;2023-04-10T00:42:24;99912.98;;;10.16;74.26
59939;BME280;45801;51.810;19.444;2023-04-10T00:44:50;99912.25;;;10.15;74.26
59939;BME280;45801;51.810;19.444;2023-04-10T00:47:17;99911.11;;;10.14;74.83
59939;BME280;45801;51.810;19.444;2023-04-10T00:49:43;99909.36;;;10.10;74.67
59939;BME280;45801;51.810;19.444;2023-04-10T00:52:11;99906.90;;;10.07;74.45
59939;BME280;45801;51.810;19.444;2023-04-10T00:54:38;99908.74;;;10.05;75.00
59939;BME280;45801;51.810;19.444;2023-04-10T00:57:05;99907.58;;;10.03;75.33
59939;BME280;45801;51.810;19.444;2023-04-10T00:59:33;99908.05;;;10.02;75.57
59939;BME280;45801;51.810;19.444;2023-04-10T01:02:00;99906.30;;;10.02;75.77
59939;BME280;45801;51.810;19.444;2023-04-10T01:04:28;99912.21;;;10.02;75.93
59939;BME280;45801;51.810;19.444;2023-04-10T01:07:28;99909.13;;;10.03;75.60
59939;BME280;45801;51.810;19.444;2023-04-10T01:10:00;99912.05;;;10.05;75.89
59939;BME280;45801;51.810;19.444;2023-04-10T01:15:38;99920.41;;;10.11;75.82
59939;BME280;45801;51.810;19.444;2023-04-10T01:20:40;99918.55;;;10.05;76.57
59939;BME280;45801;51.810;19.444;2023-04-10T01:26:08;99921.16;;;9.99;76.24
59939;BME280;45801;51.810;19.444;2023-04-10T01:28:47;99921.71;;;9.94;77.31
59939;BME280;45801;51.810;19.444;2023-04-10T01:31:26;99918.81;;;9.88;77.15
59939;BME280;45801;51.810;19.444;2023-04-10T01:33:59;99922.67;;;9.86;77.20
59939;BME280;45801;51.810;19.444;2023-04-10T01:36:32;99920.22;;;9.85;77.06
59939;BME280;45801;51.810;19.444;2023-04-10T01:39:01;99916.28;;;9.81;78.32
59939;BME280;45801;51.810;19.444;2023-04-10T01:41:30;99913.59;;;9.77;78.11
59939;BME280;45801;51.810;19.444;2023-04-10T01:43:58;99909.38;;;9.77;78.16
59939;BME280;45801;51.810;19.444;2023-04-10T01:46:25;99907.36;;;9.78;78.03
59939;BME280;45801;51.810;19.444;2023-04-10T01:48:54;99909.00;;;9.82;77.66
59939;BME280;45801;51.810;19.444;2023-04-10T01:51:22;99911.13;;;9.83;78.06
59939;BME280;45801;51.810;19.444;2023-04-10T01:53:50;99913.94;;;9.83;77.77
59939;BME280;45801;51.810;19.444;2023-04-10T01:56:17;99910.91;;;9.82;77.60
59939;BME280;45801;51.810;19.444;2023-04-10T01:58:44;99908.63;;;9.79;78.27
59939;BME280;45801;51.810;19.444;2023-04-10T02:01:17;99913.52;;;9.76;78.29
59939;BME280;45801;51.810;19.444;2023-04-10T02:03:44;99910.99;;;9.71;78.34
59939;BME280;45801;51.810;19.444;2023-04-10T02:06:15;99915.89;;;9.71;77.92
59939;BME280;45801;51.810;19.444;2023-04-10T02:08:53;99918.39;;;9.75;77.74
59939;BME280;45801;51.810;19.444;2023-04-10T02:11:32;99919.64;;;9.79;77.42
59939;BME280;45801;51.810;19.444;2023-04-10T02:14:00;99919.98;;;9.85;77.28
59939;BME280;45801;51.810;19.444;2023-04-10T02:16:29;99918.11;;;9.88;77.20
59939;BME280;45801;51.810;19.444;2023-04-10T02:18:58;99916.21;;;9.89;77.16
59939;BME280;45801;51.810;19.444;2023-04-10T02:21:26;99914.36;;;9.87;77.14
59939;BME280;45801;51.810;19.444;2023-04-10T02:23:57;99916.98;;;9.84;77.25
59939;BME280;45801;51.810;19.444;2023-04-10T02:26:23;99916.66;;;9.84;76.98
59939;BME280;45801;51.810;19.444;2023-04-10T02:28:50;99914.86;;;9.87;77.12
59939;BME280;45801;51.810;19.444;2023-04-10T02:31:17;99917.48;;;9.89;77.08
59939;BME280;45801;51.810;19.444;2023-04-10T02:33:43;99914.33;;;9.93;77.01
59939;BME280;45801;51.810;19.444;2023-04-10T02:36:10;99913.05;;;9.95;76.89
59939;BME280;45801;51.810;19.444;2023-04-10T02:38:36;99913.42;;;9.96;76.80
59939;BME280;45801;51.810;19.444;2023-04-10T02:41:03;99912.73;;;9.96;76.61
59939;BME280;45801;51.810;19.444;2023-04-10T02:43:29;99914.91;;;9.94;76.57
59939;BME280;45801;51.810;19.444;2023-04-10T02:45:56;99912.46;;;9.94;76.46
59939;BME280;45801;51.810;19.444;2023-04-10T02:48:22;99911.40;;;9.90;76.86
59939;BME280;45801;51.810;19.444;2023-04-10T02:50:55;99912.39;;;9.89;76.98
59939;BME280;45801;51.810;19.444;2023-04-10T02:53:21;99914.23;;;9.88;77.01
59939;BME280;45801;51.810;19.444;2023-04-10T02:55:49;99915.48;;;9.88;76.79
59939;BME280;45801;51.810;19.444;2023-04-10T02:58:15;99915.55;;;9.89;76.63
59939;BME280;45801;51.810;19.444;2023-04-10T03:00:47;99912.86;;;9.88;76.75
59939;BME280;45801;51.810;19.444;2023-04-10T03:03:14;99914.78;;;9.88;76.92
59939;BME280;45801;51.810;19.444;2023-04-10T03:05:40;99911.28;;;9.88;77.08
59939;BME280;45801;51.810;19.444;2023-04-10T03:08:07;99912.77;;;9.86;77.27
59939;BME280;45801;51.810;19.444;2023-04-10T03:10:33;99913.83;;;9.81;77.30
59939;BME280;45801;51.810;19.444;2023-04-10T03:13:00;99918.10;;;9.76;77.92
59939;BME280;45801;51.810;19.444;2023-04-10T03:15:26;99920.96;;;9.71;78.03
59939;BME280;45801;51.810;19.444;2023-04-10T03:17:53;99924.88;;;9.72;77.59
59939;BME280;45801;51.810;19.444;2023-04-10T03:20:20;99932.27;;;9.73;77.55
59939;BME280;45801;51.810;19.444;2023-04-10T03:22:46;99931.70;;;9.69;78.27
59939;BME280;45801;51.810;19.444;2023-04-10T03:25:13;99929.02;;;9.65;77.97
59939;BME280;45801;51.810;19.444;2023-04-10T03:27:39;99930.52;;;9.64;77.84
59939;BME280;45801;51.810;19.444;2023-04-10T03:30:07;99928.75;;;9.61;78.42
59939;BME280;45801;51.810;19.444;2023-04-10T03:32:34;99925.61;;;9.52;79.49
59939;BME280;45801;51.810;19.444;2023-04-10T03:35:01;99926.09;;;9.42;79.89
59939;BME280;45801;51.810;19.444;2023-04-10T03:37:27;99924.73;;;9.40;78.88
59939;BME280;45801;51.810;19.444;2023-04-10T03:39:55;99929.34;;;9.34;79.30
59939;BME280;45801;51.810;19.444;2023-04-10T03:42:21;99934.09;;;9.35;78.79
59939;BME280;45801;51.810;19.444;2023-04-10T03:44:48;99935.02;;;9.36;78.80
59939;BME280;45801;51.810;19.444;2023-04-10T03:47:14;99934.23;;;9.35;78.76
59939;BME280;45801;51.810;19.444;2023-04-10T03:49:41;99935.70;;;9.36;78.65
59939;BME280;45801;51.810;19.444;2023-04-10T03:52:07;99935.23;;;9.37;78.50
59939;BME280;45801;51.810;19.444;2023-04-10T03:54:34;99936.39;;;9.35;78.56
59939;BME280;45801;51.810;19.444;2023-04-10T03:57:01;99937.61;;;9.32;78.68
59939;BME280;45801;51.810;19.444;2023-04-10T03:59:28;99941.98;;;9.30;78.65
59939;BME280;45801;51.810;19.444;2023-04-10T04:01:54;99946.70;;;9.33;78.14
59939;BME280;45801;51.810;19.444;2023-04-10T04:04:21;99950.70;;;9.35;78.15
59939;BME280;45801;51.810;19.444;2023-04-10T04:06:47;99952.27;;;9.35;78.23
59939;BME280;45801;51.810;19.444;2023-04-10T04:09:14;99952.01;;;9.31;78.25
59939;BME280;45801;51.810;19.444;2023-04-10T04:11:40;99950.52;;;9.29;78.13
59939;BME280;45801;51.810;19.444;2023-04-10T04:14:07;99953.73;;;9.28;78.13
59939;BME280;45801;51.810;19.444;2023-04-10T04:16:34;99955.36;;;9.26;78.32
59939;BME280;45801;51.810;19.444;2023-04-10T04:19:01;99957.11;;;9.25;78.32
59939;BME280;45801;51.810;19.444;2023-04-10T04:21:27;99957.98;;;9.28;78.01
59939;BME280;45801;51.810;19.444;2023-04-10T04:23:54;99961.10;;;9.30;77.76
59939;BME280;45801;51.810;19.444;2023-04-10T04:26:21;99959.63;;;9.32;77.79
59939;BME280;45801;51.810;19.444;2023-04-10T04:28:50;99963.95;;;9.34;77.69
59939;BME280;45801;51.810;19.444;2023-04-10T04:31:16;99966.70;;;9.37;77.81
59939;BME280;45801;51.810;19.444;2023-04-10T04:33:42;99965.55;;;9.38;77.71
59939;BME280;45801;51.810;19.444;2023-04-10T04:36:09;99972.59;;;9.36;77.61
59939;BME280;45801;51.810;19.444;2023-04-10T04:38:36;99974.00;;;9.33;77.61
59939;BME280;45801;51.810;19.444;2023-04-10T04:41:02;99974.02;;;9.28;77.88
59939;BME280;45801;51.810;19.444;2023-04-10T04:43:28;99979.63;;;9.25;78.17
59939;BME280;45801;51.810;19.444;2023-04-10T04:45:55;99981.98;;;9.26;78.02
59939;BME280;45801;51.810;19.444;2023-04-10T04:48:21;99979.70;;;9.29;77.91
59939;BME280;45801;51.810;19.444;2023-04-10T04:50:48;99983.33;;;9.29;77.95
59939;BME280;45801;51.810;19.444;2023-04-10T04:53:14;99980.09;;;9.21;78.30
59939;BME280;45801;51.810;19.444;2023-04-10T04:55:41;99977.59;;;9.09;78.65
59939;BME280;45801;51.810;19.444;2023-04-10T04:58:07;99977.05;;;9.08;78.58
59939;BME280;45801;51.810;19.444;2023-04-10T05:00:34;99977.89;;;9.11;78.00
59939;BME280;45801;51.810;19.444;2023-04-10T05:03:00;99979.48;;;9.11;77.90
59939;BME280;45801;51.810;19.444;2023-04-10T05:05:27;99981.72;;;9.13;77.93
59939;BME280;45801;51.810;19.444;2023-04-10T05:07:54;99986.27;;;9.16;77.93
59939;BME280;45801;51.810;19.444;2023-04-10T05:10:21;99994.17;;;9.19;77.71
59939;BME280;45801;51.810;19.444;2023-04-10T05:12:48;99996.80;;;9.23;77.84
59939;BME280;45801;51.810;19.444;2023-04-10T05:15:14;99995.42;;;9.20;77.92
59939;BME280;45801;51.810;19.444;2023-04-10T05:17:41;99996.36;;;9.18;77.90
59939;BME280;45801;51.810;19.444;2023-04-10T05:20:08;100001.14;;;9.19;77.67
59939;BME280;45801;51.810;19.444;2023-04-10T05:22:35;100003.60;;;9.23;77.56
59939;BME280;45801;51.810;19.444;2023-04-10T05:25:02;100009.40;;;9.26;77.90
59939;BME280;45801;51.810;19.444;2023-04-10T05:27:29;100015.20;;;9.27;77.60
59939;BME280;45801;51.810;19.444;2023-04-10T05:29:55;100012.77;;;9.24;77.61
59939;BME280;45801;51.810;19.444;2023-04-10T05:32:23;100011.86;;;9.23;77.80
59939;BME280;45801;51.810;19.444;2023-04-10T05:34:49;100011.39;;;9.18;78.22
59939;BME280;45801;51.810;19.444;2023-04-10T05:37:16;100012.54;;;9.17;78.09
59939;BME280;45801;51.810;19.444;2023-04-10T05:39:42;100014.52;;;9.18;78.64
59939;BME280;45801;51.810;19.444;2023-04-10T05:42:09;100017.80;;;9.20;78.33
59939;BME280;45801;51.810;19.444;2023-04-10T05:44:35;100018.47;;;9.11;79.14
59939;BME280;45801;51.810;19.444;2023-04-10T05:47:02;100019.70;;;9.11;78.67
59939;BME280;45801;51.810;19.444;2023-04-10T05:49:28;100018.04;;;9.16;78.28
59939;BME280;45801;51.810;19.444;2023-04-10T05:51:56;100017.25;;;9.20;78.09
59939;BME280;45801;51.810;19.444;2023-04-10T05:54:22;100015.27;;;9.25;77.81
59939;BME280;45801;51.810;19.444;2023-04-10T05:56:49;100015.97;;;9.25;77.56
59939;BME280;45801;51.810;19.444;2023-04-10T05:59:15;100014.28;;;9.23;77.58
59939;BME280;45801;51.810;19.444;2023-04-10T06:01:43;100015.28;;;9.22;77.55
59939;BME280;45801;51.810;19.444;2023-04-10T06:04:09;100015.86;;;9.23;77.63
59939;BME280;45801;51.810;19.444;2023-04-10T06:06:36;100014.84;;;9.26;77.72
59939;BME280;45801;51.810;19.444;2023-04-10T06:09:02;100015.81;;;9.25;78.82
59939;BME280;45801;51.810;19.444;2023-04-10T06:11:29;100017.85;;;9.27;78.39
59939;BME280;45801;51.810;19.444;2023-04-10T06:13:55;100022.50;;;9.29;78.79
59939;BME280;45801;51.810;19.444;2023-04-10T06:16:22;100018.74;;;9.24;79.58
59939;BME280;45801;51.810;19.444;2023-04-10T06:18:48;100020.83;;;9.24;79.19
59939;BME280;45801;51.810;19.444;2023-04-10T06:21:17;100019.14;;;9.25;78.58
59939;BME280;45801;51.810;19.444;2023-04-10T06:23:44;100021.20;;;9.27;78.50
59939;BME280;45801;51.810;19.444;2023-04-10T06:26:10;100021.11;;;9.32;78.29
59939;BME280;45801;51.810;19.444;2023-04-10T06:28:37;100022.98;;;9.36;78.30
59939;BME280;45801;51.810;19.444;2023-04-10T06:31:07;100023.22;;;9.40;78.15
59939;BME280;45801;51.810;19.444;2023-04-10T06:33:33;100020.66;;;9.45;77.94
59939;BME280;45801;51.810;19.444;2023-04-10T06:36:03;100021.73;;;9.45;77.86
59939;BME280;45801;51.810;19.444;2023-04-10T06:38:29;100020.58;;;9.46;77.81
59939;BME280;45801;51.810;19.444;2023-04-10T06:40:56;100022.42;;;9.48;78.22
59939;BME280;45801;51.810;19.444;2023-04-10T06:43:23;100021.92;;;9.48;78.29
59939;BME280;45801;51.810;19.444;2023-04-10T06:45:49;100021.15;;;9.52;78.56
59939;BME280;45801;51.810;19.444;2023-04-10T06:48:16;100020.06;;;9.55;79.36
59939;BME280;45801;51.810;19.444;2023-04-10T06:50:42;100024.15;;;9.59;78.98
59939;BME280;45801;51.810;19.444;2023-04-10T06:53:09;100025.00;;;9.59;78.62
59939;BME280;45801;51.810;19.444;2023-04-10T06:55:35;100019.30;;;9.62;78.53
59939;BME280;45801;51.810;19.444;2023-04-10T06:58:02;100017.94;;;9.66;78.65
59939;BME280;45801;51.810;19.444;2023-04-10T07:00:29;100015.09;;;9.68;77.87
59939;BME280;45801;51.810;19.444;2023-04-10T07:02:56;100018.74;;;9.68;78.03
59939;BME280;45801;51.810;19.444;2023-04-10T07:05:22;100020.70;;;9.71;77.73
59939;BME280;45801;51.810;19.444;2023-04-10T07:07:49;100020.98;;;9.76;77.61
59939;BME280;45801;51.810;19.444;2023-04-10T07:10:16;100017.93;;;9.78;77.41
59939;BME280;45801;51.810;19.444;2023-04-10T07:12:43;100019.34;;;9.81;77.56
59939;BME280;45801;51.810;19.444;2023-04-10T07:15:10;100026.98;;;9.81;77.96
59939;BME280;45801;51.810;19.444;2023-04-10T07:17:37;100028.65;;;9.82;77.63
59939;BME280;45801;51.810;19.444;2023-04-10T07:20:04;100024.77;;;9.84;77.64
59939;BME280;45801;51.810;19.444;2023-04-10T07:22:31;100025.00;;;9.88;77.80
59939;BME280;45801;51.810;19.444;2023-04-10T07:24:58;100025.09;;;9.90;77.55
59939;BME280;45801;51.810;19.444;2023-04-10T07:27:24;100023.86;;;9.93;77.42
59939;BME280;45801;51.810;19.444;2023-04-10T07:29:54;100026.42;;;9.98;77.35
59939;BME280;45801;51.810;19.444;2023-04-10T07:32:21;100024.73;;;10.05;77.91
59939;BME280;45801;51.810;19.444;2023-04-10T07:34:49;100027.87;;;9.99;77.93
59939;BME280;45801;51.810;19.444;2023-04-10T07:37:16;100026.11;;;9.95;77.92
59939;BME280;45801;51.810;19.444;2023-04-10T07:39:43;100024.59;;;9.96;77.62
59939;BME280;45801;51.810;19.444;2023-04-10T07:42:10;100027.66;;;9.95;77.98
59939;BME280;45801;51.810;19.444;2023-04-10T07:44:37;100022.52;;;9.91;77.69
59939;BME280;45801;51.810;19.444;2023-04-10T07:47:04;100024.23;;;9.93;77.65
59939;BME280;45801;51.810;19.444;2023-04-10T07:49:31;100027.22;;;9.96;78.02
59939;BME280;45801;51.810;19.444;2023-04-10T07:51:57;100028.95;;;9.99;77.96
59939;BME280;45801;51.810;19.444;2023-04-10T07:54:24;100030.75;;;10.03;77.43
59939;BME280;45801;51.810;19.444;2023-04-10T07:56:51;100028.67;;;10.06;77.70
59939;BME280;45801;51.810;19.444;2023-04-10T07:59:18;100030.21;;;10.18;77.61
59939;BME280;45801;51.810;19.444;2023-04-10T08:01:45;100029.36;;;10.27;77.98
59939;BME280;45801;51.810;19.444;2023-04-10T08:04:11;100024.65;;;10.31;77.87
59939;BME280;45801;51.810;19.444;2023-04-10T08:06:38;100028.41;;;10.35;78.20
59939;BME280;45801;51.810;19.444;2023-04-10T08:09:04;100025.20;;;10.34;78.20
59939;BME280;45801;51.810;19.444;2023-04-10T08:11:33;100021.36;;;10.40;77.95
59939;BME280;45801;51.810;19.444;2023-04-10T08:14:01;100015.55;;;10.46;77.65
59939;BME280;45801;51.810;19.444;2023-04-10T08:16:31;100010.98;;;10.55;77.37
59939;BME280;45801;51.810;19.444;2023-04-10T08:18:59;100011.50;;;10.61;76.71
59939;BME280;45801;51.810;19.444;2023-04-10T08:21:28;100008.95;;;10.66;76.39
59939;BME280;45801;51.810;19.444;2023-04-10T08:23:58;100011.06;;;10.72;76.51
59939;BME280;45801;51.810;19.444;2023-04-10T08:26:25;100011.45;;;10.89;76.70
59939;BME280;45801;51.810;19.444;2023-04-10T08:28:55;100011.89;;;11.04;76.16
59939;BME280;45801;51.810;19.444;2023-04-10T08:31:23;100011.05;;;11.18;75.81
59939;BME280;45801;51.810;19.444;2023-04-10T08:33:50;100010.97;;;11.26;74.95
59939;BME280;45801;51.810;19.444;2023-04-10T08:36:17;100010.90;;;11.28;74.34
59939;BME280;45801;51.810;19.444;2023-04-10T08:38:44;100003.79;;;11.40;75.14
59939;BME280;45801;51.810;19.444;2023-04-10T08:41:12;100001.48;;;11.56;75.11
59939;BME280;45801;51.810;19.444;2023-04-10T08:43:39;100000.91;;;11.69;73.92
59939;BME280;45801;51.810;19.444;2023-04-10T08:46:06;100002.45;;;11.75;73.70
59939;BME280;45801;51.810;19.444;2023-04-10T08:48:52;99998.80;;;11.76;72.92
59939;BME280;45801;51.810;19.444;2023-04-10T08:51:21;99993.25;;;11.84;73.36
59939;BME280;45801;51.810;19.444;2023-04-10T08:53:53;99990.94;;;11.97;72.94
59939;BME280;45801;51.810;19.444;2023-04-10T08:56:22;99988.66;;;12.07;72.07
59939;BME280;45801;51.810;19.444;2023-04-10T08:58:50;99982.94;;;12.13;72.31
59939;BME280;45801;51.810;19.444;2023-04-10T09:01:19;99981.19;;;12.24;72.49
59939;BME280;45801;51.810;19.444;2023-04-10T09:03:46;99982.27;;;12.31;71.17
59939;BME280;45801;51.810;19.444;2023-04-10T09:06:13;99981.34;;;12.41;71.80
59939;BME280;45801;51.810;19.444;2023-04-10T09:08:40;99982.67;;;12.55;71.73
59939;BME280;45801;51.810;19.444;2023-04-10T09:11:07;99981.33;;;12.67;71.59
59939;BME280;45801;51.810;19.444;2023-04-10T09:13:43;99978.86;;;12.83;71.20
59939;BME280;45801;51.810;19.444;2023-04-10T09:16:12;99976.80;;;12.99;69.97
59939;BME280;45801;51.810;19.444;2023-04-10T09:18:39;99971.35;;;13.15;70.78
59939;BME280;45801;51.810;19.444;2023-04-10T09:21:08;99970.95;;;13.29;69.45
59939;BME280;45801;51.810;19.444;2023-04-10T09:23:34;99974.06;;;13.36;68.37
59939;BME280;45801;51.810;19.444;2023-04-10T09:26:27;99973.09;;;13.37;66.89
59939;BME280;45801;51.810;19.444;2023-04-10T09:31:33;99969.44;;;13.51;68.58
59939;BME280;45801;51.810;19.444;2023-04-10T09:34:17;99962.23;;;13.63;68.24
59939;BME280;45801;51.810;19.444;2023-04-10T09:36:59;99959.13;;;13.69;66.58
59939;BME280;45801;51.810;19.444;2023-04-10T09:42:01;99959.17;;;13.82;65.39
59939;BME280;45801;51.810;19.444;2023-04-10T09:44:33;99953.28;;;13.89;65.85
59939;BME280;45801;51.810;19.444;2023-04-10T09:47:23;99951.14;;;13.88;63.89
59939;BME280;45801;51.810;19.444;2023-04-10T09:49:51;99949.90;;;13.84;61.79
59939;BME280;45801;51.810;19.444;2023-04-10T09:52:21;99946.02;;;13.88;62.93
59939;BME280;45801;51.810;19.444;2023-04-10T09:54:50;99947.55;;;13.95;62.94
59939;BME280;45801;51.810;19.444;2023-04-10T09:57:18;99947.07;;;13.96;61.64
59939;BME280;45801;51.810;19.444;2023-04-10T09:59:53;99943.15;;;13.99;63.07
59939;BME280;45801;51.810;19.444;2023-04-10T10:02:25;99939.25;;;14.08;64.12
59939;BME280;45801;51.810;19.444;2023-04-10T10:04:56;99937.98;;;14.20;64.55
59939;BME280;45801;51.810;19.444;2023-04-10T10:07:23;99932.73;;;14.30;62.51
59939;BME280;45801;51.810;19.444;2023-04-10T10:09:51;99932.16;;;14.42;62.96
59939;BME280;45801;51.810;19.444;2023-04-10T10:12:58;99934.25;;;14.51;63.12
59939;BME280;45801;51.810;19.444;2023-04-10T10:15:22;99933.05;;;14.51;61.41
59939;BME280;45801;51.810;19.444;2023-04-10T10:17:57;99931.16;;;14.48;60.74
59939;BME280;45801;51.810;19.444;2023-04-10T10:20:27;99931.44;;;14.37;60.08
59939;BME280;45801;51.810;19.444;2023-04-10T10:22:57;99929.55;;;14.25;59.66
59939;BME280;45801;51.810;19.444;2023-04-10T10:25:28;99925.57;;;14.18;59.80
59939;BME280;45801;51.810;19.444;2023-04-10T10:27:58;99926.33;;;14.15;60.93
59939;BME280;45801;51.810;19.444;2023-04-10T10:30:30;99921.42;;;14.20;61.59
59939;BME280;45801;51.810;19.444;2023-04-10T10:32:58;99916.81;;;14.28;61.49
59939;BME280;45801;51.810;19.444;2023-04-10T10:35:26;99909.29;;;14.29;61.13
59939;BME280;45801;51.810;19.444;2023-04-10T10:37:53;99905.59;;;14.29;60.50
59939;BME280;45801;51.810;19.444;2023-04-10T10:40:30;99905.33;;;14.37;61.32
59939;BME280;45801;51.810;19.444;2023-04-10T10:43:09;99903.41;;;14.46;61.90
59939;BME280;45801;51.810;19.444;2023-04-10T10:45:49;99901.99;;;14.55;61.44
59939;BME280;45801;51.810;19.444;2023-04-10T10:48:17;99901.09;;;14.55;60.75
59939;BME280;45801;51.810;19.444;2023-04-10T10:50:54;99899.65;;;14.54;61.04
59939;BME280;45801;51.810;19.444;2023-04-10T10:53:42;99895.13;;;14.55;60.99
59939;BME280;45801;51.810;19.444;2023-04-10T10:58:46;99888.11;;;14.74;61.17
59939;BME280;45801;51.810;19.444;2023-04-10T11:01:13;99884.84;;;14.81;59.83
59939;BME280;45801;51.810;19.444;2023-04-10T11:03:41;99886.89;;;14.85;58.59
59939;BME280;45801;51.810;19.444;2023-04-10T11:06:13;99883.67;;;14.89;59.37
59939;BME280;45801;51.810;19.444;2023-04-10T11:08:42;99882.23;;;14.92;60.84
59939;BME280;45801;51.810;19.444;2023-04-10T11:11:13;99879.40;;;14.97;61.32
59939;BME280;45801;51.810;19.444;2023-04-10T11:19:09;99875.19;;;14.88;59.71
59939;BME280;45801;51.810;19.444;2023-04-10T11:24:27;99870.58;;;14.77;60.03
59939;BME280;45801;51.810;19.444;2023-04-10T11:26:54;99871.48;;;14.73;59.52
59939;BME280;45801;51.810;19.444;2023-04-10T11:31:58;99862.64;;;14.82;59.53
59939;BME280;45801;51.810;19.444;2023-04-10T11:34:25;99858.58;;;14.96;59.11
59939;BME280;45801;51.810;19.444;2023-04-10T11:37:01;99858.64;;;15.03;58.44
59939;BME280;45801;51.810;19.444;2023-04-10T11:39:32;99858.03;;;15.06;58.29
59939;BME280;45801;51.810;19.444;2023-04-10T11:41:59;99853.17;;;15.09;57.95
59939;BME280;45801;51.810;19.444;2023-04-10T11:44:31;99853.73;;;15.05;57.58
59939;BME280;45801;51.810;19.444;2023-04-10T11:47:00;99850.59;;;15.00;57.58
59939;BME280;45801;51.810;19.444;2023-04-10T11:49:30;99850.64;;;15.02;58.86
59939;BME280;45801;51.810;19.444;2023-04-10T11:51:58;99848.13;;;15.06;58.61
59939;BME280;45801;51.810;19.444;2023-04-10T11:54:27;99844.83;;;15.07;57.49
59939;BME280;45801;51.810;19.444;2023-04-10T11:57:01;99843.65;;;15.09;58.15
59939;BME280;45801;51.810;19.444;2023-04-10T11:59:30;99839.99;;;15.10;57.41
59939;BME280;45801;51.810;19.444;2023-04-10T12:02:13;99835.65;;;15.12;57.46
59939;BME280;45801;51.810;19.444;2023-04-10T12:04:41;99834.40;;;15.27;58.20
59939;BME280;45801;51.810;19.444;2023-04-10T12:07:08;99833.91;;;15.39;58.13
59939;BME280;45801;51.810;19.444;2023-04-10T12:09:35;99828.20;;;15.43;56.94
59939;BME280;45801;51.810;19.444;2023-04-10T12:12:03;99821.73;;;15.50;55.93
59939;BME280;45801;51.810;19.444;2023-04-10T12:14:40;99817.46;;;15.48;54.85
59939;BME280;45801;51.810;19.444;2023-04-10T12:17:09;99812.13;;;15.47;55.47
59939;BME280;45801;51.810;19.444;2023-04-10T12:19:37;99807.86;;;15.57;56.79
59939;BME280;45801;51.810;19.444;2023-04-10T12:22:04;99801.86;;;15.73;56.59
59939;BME280;45801;51.810;19.444;2023-04-10T12:24:49;99794.90;;;15.94;56.45
59939;BME280;45801;51.810;19.444;2023-04-10T12:27:22;99789.08;;;16.11;52.91
59939;BME280;45801;51.810;19.444;2023-04-10T12:29:50;99786.33;;;16.26;52.14
59939;BME280;45801;51.810;19.444;2023-04-10T12:32:17;99784.28;;;16.28;51.00
59939;BME280;45801;51.810;19.444;2023-04-10T12:34:57;99783.84;;;16.31;52.74
59939;BME280;45801;51.810;19.444;2023-04-10T12:37:24;99778.09;;;16.40;50.29
59939;BME280;45801;51.810;19.444;2023-04-10T12:39:51;99774.58;;;16.54;50.52
59939;BME280;45801;51.810;19.444;2023-04-10T12:42:20;99766.66;;;16.62;50.27
59939;BME280;45801;51.810;19.444;2023-04-10T12:44:53;99762.70;;;16.72;51.24
59939;BME280;45801;51.810;19.444;2023-04-10T12:47:20;99760.02;;;16.85;52.63
59939;BME280;45801;51.810;19.444;2023-04-10T12:52:33;99759.70;;;17.11;52.06
59939;BME280;45801;51.810;19.444;2023-04-10T12:55:17;99756.11;;;17.10;50.29
59939;BME280;45801;51.810;19.444;2023-04-10T12:57:46;99755.54;;;17.08;52.93
59939;BME280;45801;51.810;19.444;2023-04-10T13:00:15;99754.75;;;17.12;53.58
59939;BME280;45801;51.810;19.444;2023-04-10T13:02:43;99748.07;;;17.14;52.59
59939;BME280;45801;51.810;19.444;2023-04-10T13:05:10;99743.92;;;17.11;52.61
59939;BME280;45801;51.810;19.444;2023-04-10T13:07:37;99741.13;;;17.06;51.61
59939;BME280;45801;51.810;19.444;2023-04-10T13:10:06;99737.61;;;17.06;52.38
59939;BME280;45801;51.810;19.444;2023-04-10T13:12:33;99739.33;;;17.11;52.65
59939;BME280;45801;51.810;19.444;2023-04-10T13:15:01;99734.95;;;17.13;50.82
59939;BME280;45801;51.810;19.444;2023-04-10T13:17:28;99730.55;;;17.07;50.31
59939;BME280;45801;51.810;19.444;2023-04-10T13:19:55;99727.55;;;17.00;50.30
59939;BME280;45801;51.810;19.444;2023-04-10T13:22:21;99722.21;;;16.92;50.88
59939;BME280;45801;51.810;19.444;2023-04-10T13:24:47;99722.00;;;16.85;51.31
59939;BME280;45801;51.810;19.444;2023-04-10T13:27:14;99719.95;;;16.74;50.63
59939;BME280;45801;51.810;19.444;2023-04-10T13:29:41;99714.33;;;16.56;50.65